Aviation Digital Data Service (ADDS)

Output produced by METARs form (0154 UTC 25 February 2018)
found at http://aviationweather.gov/adds/metars/
 
CYYZ 250100Z 10007KT 15SM BKN240 01/M04 A3016 RMK CI5 SLP220
CYYZ 250000Z 12007KT 15SM FEW120 FEW250 02/M03 A3018 RMK AC1CI1 SLP229
CYYZ 242300Z 14004KT 15SM FEW120 BKN260 02/M04 A3016 RMK AC1CI6 SLP221
TAF CYYZ 242338Z 2500/2606 06006KT P6SM FEW030 BKN120 BKN240 
     FM250400 08012KT P6SM OVC100 
     FM250600 08015KT P6SM -RA BKN015 OVC050 
     TEMPO 2506/2508 3SM -RA BR OVC006 
     PROB30 2506/2508 5SM -FZRA BR OVC008 
     FM250800 08018KT 11/2SM RA BR OVC004 
     TEMPO 2508/2512 3SM -RA BR OVC006 
     FM251200 09012KT 1SM -RA BR OVC003 
     FM251500 25015KT P6SM SCT005 BKN015 OVC080 
     FM251700 25020G35KT P6SM FEW020 
     FM252100 25020G30KT P6SM FEW025 
     BECMG 2522/2524 25018KT 
     FM260300 25012KT P6SM FEW030 RMK NXT FCST BY 250300Z
       
CYKF 250100Z AUTO 10006KT 9SM BKN220 OVC240 M00/M03 A3010 RMK SLP207
CYKF 250000Z AUTO 11008KT 9SM BKN110 BKN240 00/M02 A3015 RMK SLP223
CYKF 242300Z AUTO 10006KT 9SM OVC110 01/M03 A3013 RMK SLP216
TAF CYKF 250138Z 2502/2514 09010KT P6SM FEW020 BKN100 OVC240 
     FM250400 09012KT P6SM OVC100 
     TEMPO 2505/2507 P6SM -FZRA BKN010 OVC060 
     FM250700 09015KT 6SM -FZRA BR OVC010 
     TEMPO 2507/2510 2SM -RA BR OVC005 
     FM251000 12015KT 1SM -RA BR OVC003 
     TEMPO 2510/2514 3SM SHRA BR OVC006 
     BECMG 2513/2514 25025G35KT RMK FCST BASED ON AUTO OBS. NXT FCST BY 250800Z
       
CYBN 250100Z AUTO 00000KT 9SM CLR M02/M04 A3015 RMK SLP220
CYBN 250000Z AUTO 00000KT 9SM CLR M01/M04 A3017 RMK SLP228
CYBN 242300Z AUTO 07003KT 9SM CLR 01/M04 A3016 RMK SLP225
CYXU 250100Z 10011KT 15SM FEW017 BKN110 BKN220 01/M02 A3007 RMK SC1AC4CI2 SLP195
CYXU 250000Z 08009G15KT 15SM SCT017 BKN100 01/M01 A3009 RMK SC3AC4 PRESFR SLP201
CYXU 242309Z 10011KT 15SM BKN017 OVC110 02/M00 A3012 RMK SC6AC2 SLP212
CYXU 242300Z 10008KT 15SM BKN017 OVC110 03/M00 A3012 RMK SC5AC3 SLP211
TAF CYXU 242338Z 2500/2524 08012KT P6SM BKN015 OVC100 
     TEMPO 2500/2504 SCT020 OVC100 
     FM250400 09015KT P6SM -RA BKN010 OVC050 
     TEMPO 2504/2506 3SM -RA BR OVC005 
     FM250600 10015G25KT 11/2SM RA BR OVC003 
     TEMPO 2506/2510 3SM -RA BR OVC006 
     PROB30 2507/2509 1/2SM +TSRA FG VV001 
     FM251000 14015KT 1SM -RA -DZ BR OVC002 
     FM251200 21020G30KT 4SM -DZ BR OVC005 
     FM251400 25020G40KT P6SM BKN015 
     FM251700 24020G30KT P6SM SCT020 
     BECMG 2522/2524 25015KT RMK NXT FCST BY 250600Z
       
CYHM 250100Z 06010KT 15SM BKN110 BKN240 00/M02 A3012 RMK AC6CI1 SLP210
CYHM 250000Z 07006KT 15SM BKN110 00/M03 A3016 RMK AC7 SLP226
CYHM 242300Z 06009KT 15SM BKN110 BKN250 01/M03 A3015 RMK AC6CI1 SLP219
TAF CYHM 242338Z 2500/2524 06012KT P6SM FEW030 OVC120 
     FM250500 06015KT P6SM -RA BKN007 OVC050 
     TEMPO 2505/2507 11/2SM -RA BR OVC003 
     FM250700 06015KT 1SM RA BR OVC002 
     TEMPO 2507/2512 3SM -RA BR OVC005 
     PROB30 2509/2511 1/2SM +TSRA FG VV001 
     FM251200 18015KT 1SM -RA BR OVC003 
     FM251400 24020G35KT P6SM BKN015 OVC060 
     FM251700 24020G35KT P6SM FEW020 
     FM252000 24020G30KT P6SM SCT025 
     BECMG 2522/2524 24015KT RMK NXT FCST BY 250600Z
       
CYQA 250100Z AUTO 09002KT 9SM CLR M01/M04 A3016 RMK SLP229
CYQA 250000Z AUTO 08002KT 9SM CLR M02/M04 A3016 RMK SLP228
CYQA 242300Z AUTO 00000KT 9SM CLR 00/M04 A3016 RMK PRESRR SLP227
TAF CYQA 241938Z 2420/2503 VRB03KT P6SM OVC020 
     TEMPO 2420/2424 OVC025 
     BECMG 2422/2424 10006KT 
     FM250000 12006KT P6SM OVC020 
     TEMPO 2500/2503 SCT020 OVC130 RMK FCST BASED ON AUTO OBS. NXT FCST WILL BE ISSUED AT 251245Z
       
CYVV 250100Z 09006KT 15SM FEW150 OVC250 M01/M03 A3012 RMK AC1CS7 HALO PRESFR SLP212
CYVV 250000Z 07006KT 15SM FEW150 OVC250 M01/M04 A3013 RMK AC2CS6 HALO SLP217
CYVV 242300Z 07008KT 15SM SCT150 BKN300 M01/M04 A3014 RMK AC3CI3 SLP218
CYZR 250100Z AUTO 11003KT 9SM OVC220 01/00 A3003 RMK SLP178
CYZR 250000Z AUTO 06005KT 9SM FEW022 BKN240 00/M00 A3008 RMK SLP193
CYZR 242349Z AUTO 05006KT 9SM SCT022 BKN240 00/M00 A3008 RMK SLP193
CYZR 242300Z AUTO 04007KT 9SM OVC022 01/M01 A3012 RMK SLP207
TAF AMD CYZR 242304Z 2423/2503 04007KT P6SM SCT020 OVC110 
     TEMPO 2423/2503 BKN020 OVC120 
     BECMG 2423/2501 15006KT RMK FCST BASED ON AUTO OBS. NXT FCST WILL BE ISSUED AT 250845Z
       
CYPQ 250100Z AUTO 10003KT 9SM OVC031 M01/M02 A3019 RMK SLP233
CYPQ 250000Z AUTO 06003KT 9SM FEW030 00/M02 A3018 RMK SLP230
CYPQ 242300Z AUTO 05003KT 9SM CLR 02/M02 A3017 RMK SLP228
TAF CYPQ 241939Z 2420/2503 36006KT P6SM SCT025 BKN240 
     TEMPO 2420/2423 BKN020 BKN240 
     FM250000 07006KT P6SM FEW025 SCT120 OVC240 RMK FCST BASED ON AUTO OBS. NXT FCST WILL BE ISSUED AT 251045Z
       
CWLS 250100Z AUTO 11004KT M00/M03 RMK AO1 SLP200 T10011026 58010
CWLS 250000Z AUTO 11004KT M00/M03 RMK AO1 SLP215 T10031027 53001
CWLS 242300Z AUTO 11004KT 01/M02 RMK AO1 SLP208 T00141024 56014
CWCO 250100Z AUTO 14003KT M01/M03 RMK AO1 SLP217 T10071028 58012
CWCO 250000Z AUTO 10002KT M01/M03 RMK AO1 5003 SLP225 T10101026 50002
CWCO 242300Z AUTO 36002KT M01/M03 RMK AO1 6014 SLP224 T10071031 50002